Time;durP1;ratioP1;P1;durP2;ratioP2;P2;SDS_P1;SDS_P2;PMS_P1;PMS_P2;Temp;Humidity;BMP_temperature;BMP_pressure;BME280_temperature;BME280_humidity;BME280_pressure;Samples;Min_cycle;Max_cycle;Signal;HPM_P1;HPM_P2
2023/07/19 00:00:40;;;;;;;11.80;7.37;;;18.50;99.90;;;;;;5132961;27;20249;-76
2023/07/19 00:03:09;;;;;;;13.70;7.57;;;18.40;99.90;;;;;;5153280;27;20319;-77
2023/07/19 00:05:37;;;;;;;11.57;7.30;;;18.40;99.90;;;;;;5156075;27;20208;-75
2023/07/19 00:08:04;;;;;;;10.43;7.03;;;18.30;99.90;;;;;;5158132;27;20205;-76
2023/07/19 00:10:32;;;;;;;11.53;8.20;;;18.30;99.90;;;;;;5155791;27;20231;-76
2023/07/19 00:13:01;;;;;;;12.70;7.10;;;18.30;99.90;;;;;;5158206;27;20200;-77
2023/07/19 00:15:30;;;;;;;11.47;7.83;;;18.30;99.90;;;;;;5157536;27;20244;-77
2023/07/19 00:17:58;;;;;;;10.63;7.40;;;18.30;99.90;;;;;;5157722;27;20209;-77
2023/07/19 00:20:27;;;;;;;12.17;7.73;;;18.30;99.90;;;;;;5156476;27;20646;-77
2023/07/19 00:22:55;;;;;;;12.10;7.57;;;18.30;99.90;;;;;;5157241;27;20228;-78
2023/07/19 00:25:23;;;;;;;11.30;7.73;;;18.40;99.90;;;;;;5157892;27;20227;-78
2023/07/19 00:27:51;;;;;;;12.83;7.90;;;18.40;99.90;;;;;;5157792;27;20205;-78
2023/07/19 00:30:19;;;;;;;9.90;7.50;;;18.40;99.90;;;;;;5155859;27;20213;-78
2023/07/19 00:32:49;;;;;;;10.30;6.97;;;18.40;99.90;;;;;;5148691;27;20216;-78
2023/07/19 00:35:17;;;;;;;10.47;7.30;;;18.40;99.90;;;;;;5157457;27;20299;-79
2023/07/19 00:37:45;;;;;;;11.10;7.47;;;18.40;99.90;;;;;;5155188;27;20700;-78
2023/07/19 00:40:14;;;;;;;13.27;7.77;;;18.30;99.90;;;;;;5157410;27;20226;-77
2023/07/19 00:42:42;;;;;;;13.43;7.97;;;18.40;99.90;;;;;;5157017;27;20204;-77
2023/07/19 00:45:10;;;;;;;13.17;8.87;;;18.40;99.90;;;;;;5142104;27;20225;-77
2023/07/19 00:47:40;;;;;;;12.53;8.60;;;18.30;99.90;;;;;;5147445;27;20232;-78
2023/07/19 00:50:10;;;;;;;14.27;8.63;;;18.40;99.90;;;;;;5157207;27;20212;-77
2023/07/19 00:52:39;;;;;;;12.23;7.43;;;18.40;99.90;;;;;;5156770;27;20227;-77
2023/07/19 00:55:08;;;;;;;13.10;7.97;;;18.40;99.90;;;;;;5151210;27;20301;-76
2023/07/19 00:57:37;;;;;;;12.27;7.47;;;18.40;99.90;;;;;;5136369;27;20608;-77
2023/07/19 01:00:07;;;;;;;13.13;7.40;;;18.30;99.90;;;;;;5135814;27;20235;-76
2023/07/19 01:02:36;;;;;;;12.43;7.60;;;18.20;99.90;;;;;;5135641;27;20209;-76
2023/07/19 01:05:04;;;;;;;12.30;7.30;;;18.20;99.90;;;;;;5148319;27;20293;-76
2023/07/19 01:07:34;;;;;;;10.67;7.10;;;18.20;99.90;;;;;;5156846;27;20574;-76
2023/07/19 01:10:02;;;;;;;10.47;7.50;;;18.20;99.90;;;;;;5156964;27;20209;-77
2023/07/19 01:12:30;;;;;;;11.00;7.50;;;18.20;99.90;;;;;;5155504;27;20205;-77
2023/07/19 01:14:58;;;;;;;12.47;7.13;;;18.10;99.90;;;;;;5157294;27;20228;-77
2023/07/19 01:17:26;;;;;;;11.67;7.40;;;18.10;99.90;;;;;;5156702;27;20277;-76
2023/07/19 01:19:54;;;;;;;10.77;7.77;;;18.00;99.90;;;;;;5157611;27;20269;-77
2023/07/19 01:22:23;;;;;;;8.47;7.00;;;18.00;99.90;;;;;;5124838;27;20615;-78
2023/07/19 01:24:52;;;;;;;10.17;7.53;;;18.00;99.90;;;;;;5115180;28;20790;-76
2023/07/19 01:27:20;;;;;;;10.87;7.20;;;18.00;99.90;;;;;;5115546;28;20213;-76
2023/07/19 01:29:50;;;;;;;12.13;7.27;;;17.90;99.90;;;;;;5134673;27;20253;-77
2023/07/19 01:32:19;;;;;;;11.27;7.20;;;17.90;99.90;;;;;;5155955;27;20213;-77
2023/07/19 01:34:47;;;;;;;13.50;7.50;;;17.90;99.90;;;;;;5156764;27;20205;-77
2023/07/19 01:37:15;;;;;;;8.90;7.50;;;17.90;99.90;;;;;;5156288;27;20209;-77
2023/07/19 01:39:44;;;;;;;12.37;7.10;;;17.90;99.90;;;;;;5154118;27;20249;-76
2023/07/19 01:42:13;;;;;;;11.37;7.37;;;17.80;99.90;;;;;;5154171;27;20247;-77
2023/07/19 01:44:41;;;;;;;12.57;7.30;;;17.80;99.90;;;;;;5135353;27;20316;-77
2023/07/19 01:47:10;;;;;;;9.80;7.23;;;17.80;99.90;;;;;;5135728;27;20244;-77
2023/07/19 01:49:40;;;;;;;11.53;6.50;;;17.80;99.90;;;;;;5154720;27;20266;-76
2023/07/19 01:52:08;;;;;;;15.23;7.87;;;17.80;99.90;;;;;;5156337;27;20212;-77
2023/07/19 01:54:36;;;;;;;10.43;6.80;;;17.80;99.90;;;;;;5143666;27;20552;-75
2023/07/19 01:57:05;;;;;;;11.60;7.20;;;17.80;99.90;;;;;;5144114;27;20620;-77
2023/07/19 01:59:35;;;;;;;9.90;7.00;;;17.70;99.90;;;;;;5156859;27;20208;-77
2023/07/19 02:02:03;;;;;;;11.73;7.53;;;17.70;99.90;;;;;;5156752;27;20201;-76
2023/07/19 02:04:31;;;;;;;11.97;7.27;;;17.70;99.90;;;;;;5154109;27;20205;-75
2023/07/19 02:07:00;;;;;;;11.53;7.37;;;17.70;99.90;;;;;;5156404;27;20217;-76
2023/07/19 02:09:28;;;;;;;13.57;7.60;;;17.70;99.90;;;;;;5157077;27;20610;-77
2023/07/19 02:11:56;;;;;;;10.67;7.47;;;17.60;99.90;;;;;;5155721;27;20569;-77
2023/07/19 02:14:24;;;;;;;13.20;7.43;;;17.70;99.90;;;;;;5153845;27;20252;-78
2023/07/19 02:16:54;;;;;;;10.10;6.93;;;17.60;99.90;;;;;;5156130;27;20205;-77
2023/07/19 02:19:22;;;;;;;15.43;7.87;;;17.60;99.90;;;;;;5155432;27;20300;-76
2023/07/19 02:21:50;;;;;;;10.87;7.27;;;17.60;99.90;;;;;;5155107;27;20240;-76
2023/07/19 02:24:18;;;;;;;14.67;7.20;;;17.60;99.90;;;;;;5154697;27;20678;-76
2023/07/19 02:26:46;;;;;;;12.27;7.03;;;17.60;99.90;;;;;;5155305;27;20257;-76
2023/07/19 02:29:15;;;;;;;12.47;7.20;;;17.60;99.90;;;;;;5155281;27;20594;-76
2023/07/19 02:31:43;;;;;;;13.07;7.30;;;17.60;99.90;;;;;;5153223;27;20278;-77
2023/07/19 02:34:13;;;;;;;12.80;6.90;;;17.60;99.90;;;;;;5155100;27;20229;-77
2023/07/19 02:36:42;;;;;;;12.53;6.90;;;17.60;99.90;;;;;;5155806;27;20622;-76
2023/07/19 02:39:10;;;;;;;13.10;7.07;;;17.60;99.90;;;;;;5153297;27;20205;-76
2023/07/19 02:41:38;;;;;;;11.77;7.17;;;17.70;99.90;;;;;;5146087;27;20258;-76
2023/07/19 02:44:08;;;;;;;12.73;7.40;;;17.70;99.90;;;;;;5133925;27;20275;-76
2023/07/19 02:46:37;;;;;;;16.30;7.07;;;17.70;99.90;;;;;;5134668;27;20202;-76
2023/07/19 02:49:05;;;;;;;13.83;6.80;;;17.70;99.90;;;;;;5146582;27;20257;-75
2023/07/19 02:51:34;;;;;;;15.57;6.47;;;17.70;99.90;;;;;;5155293;27;20647;-76
2023/07/19 02:54:03;;;;;;;14.77;6.87;;;17.80;99.90;;;;;;5154345;27;20681;-77
2023/07/19 02:56:31;;;;;;;15.00;6.53;;;17.80;99.90;;;;;;5153865;27;20274;-77
2023/07/19 02:58:59;;;;;;;11.70;6.47;;;17.80;99.90;;;;;;5175215;27;20205;-75
2023/07/19 03:01:27;;;;;;;14.90;6.27;;;17.80;99.90;;;;;;5173073;27;20234;-75
2023/07/19 03:03:57;;;;;;;15.10;6.47;;;17.80;99.90;;;;;;5158950;27;20208;-75
2023/07/19 03:06:25;;;;;;;15.83;6.23;;;17.80;99.90;;;;;;5159088;27;20200;-74
2023/07/19 03:08:54;;;;;;;12.83;6.20;;;17.90;99.90;;;;;;5165189;27;20272;-76
2023/07/19 03:11:23;;;;;;;15.73;6.20;;;17.90;99.90;;;;;;5154949;27;20228;-75
2023/07/19 03:13:51;;;;;;;12.77;6.20;;;18.00;99.90;;;;;;5146836;27;20201;-77
2023/07/19 03:16:19;;;;;;;12.97;6.03;;;17.90;99.90;;;;;;5152921;27;20270;-75
2023/07/19 03:18:47;;;;;;;12.40;5.80;;;17.80;99.90;;;;;;5155350;27;20607;-78
2023/07/19 03:21:15;;;;;;;11.63;6.40;;;17.80;99.90;;;;;;5154737;27;20208;-77
2023/07/19 03:23:43;;;;;;;13.60;6.63;;;17.70;99.90;;;;;;5152836;27;20213;-77
2023/07/19 03:26:13;;;;;;;12.80;6.77;;;17.70;99.90;;;;;;5122981;28;20190;-77
2023/07/19 03:28:41;;;;;;;10.60;6.53;;;17.60;99.90;;;;;;5131588;28;20461;-77
2023/07/19 03:31:12;;;;;;;15.77;7.00;;;17.50;99.90;;;;;;5134159;28;20225;-77
2023/07/19 03:33:40;;;;;;;9.00;6.07;;;17.50;99.90;;;;;;5148215;27;20208;-77
2023/07/19 03:36:08;;;;;;;10.00;6.47;;;17.50;99.90;;;;;;5177679;27;20292;-77
2023/07/19 03:38:36;;;;;;;10.20;6.00;;;17.40;99.90;;;;;;5177627;27;20193;-77
2023/07/19 03:41:07;;;;;;;13.33;6.57;;;17.40;99.90;;;;;;5160899;27;20213;-76
2023/07/19 03:43:37;;;;;;;12.00;6.43;;;17.40;99.90;;;;;;5167425;27;20184;-76
2023/07/19 03:46:06;;;;;;;11.73;6.50;;;17.40;99.90;;;;;;5175131;27;20193;-74
2023/07/19 03:48:35;;;;;;;12.37;5.77;;;17.60;99.90;;;;;;5177817;27;20222;-76
2023/07/19 03:51:04;;;;;;;20.33;6.23;;;17.70;99.90;;;;;;5171894;27;20212;-78
2023/07/19 03:53:32;;;;;;;11.67;5.60;;;17.80;99.90;;;;;;5155860;27;20208;-76
2023/07/19 03:56:01;;;;;;;13.27;6.20;;;17.80;99.90;;;;;;5155603;28;20243;-76
2023/07/19 03:58:29;;;;;;;14.20;5.80;;;17.80;99.90;;;;;;5157215;27;20198;-77
2023/07/19 04:00:59;;;;;;;10.07;5.50;;;17.90;99.90;;;;;;5156488;27;20194;-75
2023/07/19 04:03:28;;;;;;;12.27;6.30;;;18.00;99.90;;;;;;5158941;27;20200;-76
2023/07/19 04:05:58;;;;;;;9.80;5.50;;;18.00;99.90;;;;;;5176517;27;20201;-76
2023/07/19 04:08:27;;;;;;;14.20;6.30;;;18.00;99.90;;;;;;5176532;27;20207;-74
2023/07/19 04:10:55;;;;;;;14.97;6.03;;;18.10;99.90;;;;;;5176697;27;20228;-74
2023/07/19 04:13:23;;;;;;;11.07;6.03;;;18.10;99.90;;;;;;5172370;27;20215;-77
2023/07/19 04:15:51;;;;;;;9.73;5.07;;;18.10;99.90;;;;;;5163033;27;20231;-76
2023/07/19 04:18:20;;;;;;;13.97;5.47;;;18.20;99.90;;;;;;5161272;27;20719;-77
2023/07/19 04:20:56;;;;;;;11.63;5.53;;;18.20;99.90;;;;;;5164731;27;20200;-78
2023/07/19 04:23:25;;;;;;;11.90;5.60;;;18.20;99.90;;;;;;5169582;27;20208;-76
2023/07/19 04:25:53;;;;;;;14.50;6.00;;;18.20;99.90;;;;;;5168366;27;20196;-76
2023/07/19 04:28:21;;;;;;;11.27;5.40;;;18.20;99.90;;;;;;5170614;27;20205;-76
2023/07/19 04:30:49;;;;;;;11.10;5.33;;;18.20;99.90;;;;;;5151289;27;20258;-75
2023/07/19 04:33:17;;;;;;;12.47;5.33;;;18.20;99.90;;;;;;5158174;27;20186;-77
2023/07/19 04:35:47;;;;;;;12.23;5.57;;;18.40;99.90;;;;;;5147378;27;20227;-75
2023/07/19 04:38:15;;;;;;;11.87;6.00;;;18.50;99.90;;;;;;5155323;27;20220;-76
2023/07/19 04:40:43;;;;;;;11.47;5.27;;;18.60;99.90;;;;;;5155568;27;20202;-75
2023/07/19 04:43:11;;;;;;;11.50;5.23;;;18.60;99.90;;;;;;5153131;28;20231;-75
2023/07/19 04:45:39;;;;;;;10.77;5.10;;;18.70;99.90;;;;;;5153145;28;20223;-75
2023/07/19 04:48:07;;;;;;;14.47;5.60;;;18.70;99.90;;;;;;5158708;27;20230;-75
2023/07/19 04:50:37;;;;;;;10.47;5.70;;;18.80;99.90;;;;;;5154330;27;20181;-75
2023/07/19 04:53:06;;;;;;;10.87;5.57;;;18.70;99.90;;;;;;5155176;27;20202;-76
2023/07/19 04:55:34;;;;;;;13.40;5.50;;;18.80;99.90;;;;;;5154580;27;20216;-76
2023/07/19 04:58:02;;;;;;;11.20;5.00;;;18.80;99.90;;;;;;5153487;27;20225;-74
2023/07/19 05:00:31;;;;;;;12.87;5.27;;;18.80;99.90;;;;;;5149623;27;20205;-75
2023/07/19 05:02:59;;;;;;;12.37;5.47;;;18.90;99.90;;;;;;5146802;27;20202;-75
2023/07/19 05:05:27;;;;;;;12.53;4.90;;;19.00;99.90;;;;;;5151626;27;20204;-75
2023/07/19 05:07:55;;;;;;;16.70;5.20;;;19.00;99.90;;;;;;5148575;27;20216;-76
2023/07/19 05:10:25;;;;;;;11.63;5.60;;;19.10;99.90;;;;;;5146485;27;20270;-74
2023/07/19 05:12:53;;;;;;;9.83;5.17;;;19.30;99.90;;;;;;5148578;27;20210;-75
2023/07/19 05:15:21;;;;;;;11.60;5.83;;;19.40;99.90;;;;;;5139179;27;20269;-77
2023/07/19 05:17:49;;;;;;;13.60;5.50;;;19.60;99.90;;;;;;5145947;27;20696;-77
2023/07/19 05:20:18;;;;;;;15.10;5.30;;;19.70;99.90;;;;;;5149719;27;20198;-78
2023/07/19 05:22:46;;;;;;;12.00;5.50;;;19.70;99.90;;;;;;5156283;27;20236;-78
2023/07/19 05:25:14;;;;;;;10.20;5.20;;;19.70;99.90;;;;;;5142226;27;20202;-78
2023/07/19 05:27:44;;;;;;;10.90;5.40;;;19.80;99.90;;;;;;5138362;27;20202;-77
2023/07/19 05:30:13;;;;;;;12.70;5.20;;;19.80;99.90;;;;;;5137097;27;20670;-77
2023/07/19 05:32:41;;;;;;;11.07;5.27;;;19.70;99.90;;;;;;5145648;27;20716;-78
2023/07/19 05:35:10;;;;;;;13.33;5.33;;;19.70;99.90;;;;;;5152800;27;20197;-77
2023/07/19 05:37:39;;;;;;;13.83;5.20;;;19.80;99.90;;;;;;5143674;27;20773;-76
2023/07/19 05:40:09;;;;;;;11.00;5.20;;;19.90;99.90;;;;;;5134295;27;20289;-75
2023/07/19 05:42:37;;;;;;;11.67;5.10;;;20.00;99.90;;;;;;5137155;27;20202;-76
2023/07/19 05:45:08;;;;;;;11.30;5.70;;;20.10;99.90;;;;;;5136285;27;20242;-75
2023/07/19 05:47:36;;;;;;;9.33;5.20;;;20.10;99.90;;;;;;5137409;27;20627;-76
2023/07/19 05:50:06;;;;;;;7.73;4.80;;;20.10;99.90;;;;;;5133681;27;20241;-76
2023/07/19 05:52:34;;;;;;;12.30;5.87;;;20.20;99.90;;;;;;5135778;27;20277;-75
2023/07/19 05:55:02;;;;;;;10.77;5.90;;;20.40;99.90;;;;;;5136109;27;20266;-76
2023/07/19 05:57:34;;;;;;;11.50;5.47;;;20.50;99.90;;;;;;5136806;27;20700;-77
2023/07/19 06:00:06;;;;;;;13.93;5.63;;;20.50;99.90;;;;;;5138908;27;20212;-77
2023/07/19 06:02:49;;;;;;;11.33;5.50;;;20.40;99.90;;;;;;5132325;27;20220;-75
2023/07/19 06:05:20;;;;;;;11.93;5.50;;;20.40;99.90;;;;;;5133821;27;20263;-77
2023/07/19 06:07:49;;;;;;;11.03;5.83;;;20.30;99.90;;;;;;5134882;27;20201;-75
2023/07/19 06:10:18;;;;;;;13.50;5.50;;;20.50;99.90;;;;;;5134251;27;20230;-77
2023/07/19 06:12:47;;;;;;;12.33;5.30;;;21.20;99.90;;;;;;5135909;27;20213;-78
2023/07/19 06:15:15;;;;;;;11.10;5.00;;;22.00;99.90;;;;;;5136102;27;20197;-76
2023/07/19 06:17:44;;;;;;;11.07;5.27;;;23.00;99.90;;;;;;5135600;27;20217;-78
2023/07/19 06:20:14;;;;;;;10.07;4.90;;;23.80;99.90;;;;;;5135451;27;20197;-80
2023/07/19 06:22:42;;;;;;;11.97;5.23;;;24.60;99.90;;;;;;5135414;27;20732;-78
2023/07/19 06:25:11;;;;;;;12.63;4.90;;;25.20;99.90;;;;;;5135603;27;20200;-77
2023/07/19 06:27:40;;;;;;;10.77;5.10;;;25.70;99.90;;;;;;5136030;27;20252;-78
2023/07/19 06:30:09;;;;;;;10.07;4.93;;;25.70;99.90;;;;;;5140252;27;20285;-77
2023/07/19 06:32:37;;;;;;;10.33;4.60;;;25.60;99.90;;;;;;5135378;27;20264;-77
2023/07/19 06:35:08;;;;;;;11.77;4.73;;;25.70;99.90;;;;;;5136135;27;20225;-79
2023/07/19 06:37:38;;;;;;;11.67;4.87;;;26.00;99.90;;;;;;5133684;27;20209;-78
2023/07/19 06:40:07;;;;;;;12.07;5.37;;;26.40;99.90;;;;;;5134259;27;20720;-81
2023/07/19 06:42:37;;;;;;;11.70;4.80;;;26.90;99.90;;;;;;5134510;27;20206;-80
2023/07/19 06:45:06;;;;;;;11.63;4.77;;;26.80;99.90;;;;;;5136875;27;20201;-80
2023/07/19 06:47:34;;;;;;;12.17;4.70;;;26.70;99.90;;;;;;5133523;27;20224;-78
2023/07/19 06:50:03;;;;;;;12.10;5.47;;;26.70;99.90;;;;;;5135395;27;20202;-78
2023/07/19 06:52:31;;;;;;;10.23;4.73;;;26.20;99.90;;;;;;5135197;27;20218;-77
2023/07/19 06:55:00;;;;;;;13.67;4.67;;;26.40;99.90;;;;;;5133059;27;20206;-78
2023/07/19 06:57:29;;;;;;;11.87;4.90;;;26.70;99.90;;;;;;5134361;27;20224;-79
2023/07/19 06:59:58;;;;;;;9.03;4.70;;;27.00;99.90;;;;;;5136527;27;20205;-78
2023/07/19 07:02:26;;;;;;;8.60;4.25;;;27.00;99.90;;;;;;5135060;27;20202;-78
2023/07/19 07:04:54;;;;;;;9.23;4.47;;;27.20;99.90;;;;;;5139170;27;20205;-75
2023/07/19 07:07:22;;;;;;;9.83;5.20;;;26.90;99.90;;;;;;5133659;27;20201;-78
2023/07/19 07:09:50;;;;;;;8.97;4.97;;;26.50;99.90;;;;;;5139265;27;20208;-79
2023/07/19 07:12:20;;;;;;;8.43;4.53;;;26.50;99.90;;;;;;5139967;27;20884;-80
2023/07/19 07:14:48;;;;;;;13.85;4.90;;;27.10;99.90;;;;;;5138505;27;20209;-82
2023/07/19 07:17:18;;;;;;;10.38;4.70;;;27.90;99.90;;;;;;5142479;27;20217;-80
2023/07/19 07:19:46;;;;;;;11.15;4.13;;;28.80;98.80;;;;;;5142317;27;20246;-78
2023/07/19 07:22:15;;;;;;;8.45;4.38;;;29.60;96.20;;;;;;5143855;27;20213;-82
2023/07/19 07:24:43;;;;;;;9.63;4.45;;;30.50;94.50;;;;;;5115768;28;20206;-81
2023/07/19 07:27:12;;;;;;;8.55;4.70;;;31.20;91.10;;;;;;5119175;28;20232;-83
2023/07/19 07:29:42;;;;;;;13.85;5.00;;;30.80;90.00;;;;;;5115791;28;20693;-81
2023/07/19 07:32:11;;;;;;;10.45;4.70;;;31.10;89.00;;;;;;5116225;28;20687;-79
2023/07/19 07:34:41;;;;;;;11.65;4.70;;;31.60;84.10;;;;;;5124043;27;20258;-81
2023/07/19 07:37:10;;;;;;;14.27;4.70;;;32.30;81.50;;;;;;5136821;27;20229;-82
2023/07/19 07:39:38;;;;;;;9.13;5.00;;;32.50;79.00;;;;;;5118466;28;20237;-81
2023/07/19 07:42:08;;;;;;;9.77;5.10;;;32.90;76.60;;;;;;5113627;28;20198;-80
2023/07/19 07:44:36;;;;;;;9.77;4.57;;;33.60;73.50;;;;;;5114667;28;20232;-82
2023/07/19 07:47:06;;;;;;;12.27;4.78;;;33.90;69.20;;;;;;5138844;27;20557;-81
2023/07/19 07:49:34;;;;;;;11.10;4.90;;;32.80;72.30;;;;;;5159193;27;20337;-83
2023/07/19 07:52:03;;;;;;;7.40;4.35;;;33.80;71.60;;;;;;5160665;27;20613;-82
2023/07/19 07:54:31;;;;;;;12.88;4.38;;;34.30;66.30;;;;;;5159077;27;20209;-82
2023/07/19 07:57:00;;;;;;;9.93;4.32;;;34.80;64.60;;;;;;5157632;27;20207;-82
2023/07/19 07:59:28;;;;;;;9.75;4.82;;;34.50;64.70;;;;;;5158506;27;20265;-82
2023/07/19 08:01:56;;;;;;;9.80;5.00;;;34.20;64.20;;;;;;5156200;27;20213;-81
2023/07/19 08:04:27;;;;;;;10.00;4.80;;;34.50;60.60;;;;;;5156758;27;20896;-81
2023/07/19 08:06:56;;;;;;;9.82;5.15;;;34.80;57.90;;;;;;5162049;27;20216;-84
2023/07/19 08:09:24;;;;;;;8.05;4.80;;;34.80;59.90;;;;;;5160302;27;20197;-85
2023/07/19 08:11:53;;;;;;;8.27;4.80;;;35.10;56.90;;;;;;5159952;27;20205;-84
2023/07/19 08:14:22;;;;;;;9.80;4.75;;;35.00;57.50;;;;;;5165658;27;20205;-84
2023/07/19 08:16:51;;;;;;;10.73;5.13;;;35.10;55.00;;;;;;5160612;27;20200;-83
2023/07/19 08:19:19;;;;;;;9.15;4.68;;;34.20;55.30;;;;;;5149359;27;20204;-82
2023/07/19 08:21:49;;;;;;;8.90;5.47;;;34.00;57.10;;;;;;5143884;27;20310;-81
2023/07/19 08:24:17;;;;;;;11.18;4.30;;;33.80;54.90;;;;;;5138594;28;20240;-84
2023/07/19 08:26:45;;;;;;;9.77;4.88;;;34.30;56.60;;;;;;5148663;27;20726;-84
2023/07/19 08:29:13;;;;;;;8.07;4.75;;;34.40;57.20;;;;;;5144089;27;20212;-83
2023/07/19 08:31:42;;;;;;;10.25;4.60;;;34.80;55.90;;;;;;5142432;27;20209;-82
2023/07/19 08:34:10;;;;;;;8.05;5.00;;;34.70;54.90;;;;;;5137655;27;20228;-84
2023/07/19 08:36:38;;;;;;;7.22;4.45;;;34.30;55.60;;;;;;5142320;27;20210;-84
2023/07/19 08:39:08;;;;;;;7.20;4.57;;;34.60;55.10;;;;;;5138324;27;20205;-83
2023/07/19 08:41:37;;;;;;;8.98;4.63;;;35.40;52.90;;;;;;5144322;27;20637;-84
2023/07/19 08:44:05;;;;;;;8.57;4.75;;;35.90;51.00;;;;;;5161846;27;20303;-85
2023/07/19 08:46:36;;;;;;;7.28;4.57;;;35.80;50.70;;;;;;5165238;27;20585;-81
2023/07/19 08:49:05;;;;;;;7.20;4.55;;;35.70;51.80;;;;;;5161272;27;20297;-84
2023/07/19 08:51:35;;;;;;;7.40;4.45;;;34.50;50.60;;;;;;5148175;27;20205;-84
2023/07/19 08:54:03;;;;;;;8.07;4.63;;;33.40;50.70;;;;;;5140774;27;20208;-85
2023/07/19 08:56:34;;;;;;;11.13;4.28;;;32.80;54.20;;;;;;5139900;27;20201;-84
2023/07/19 08:59:02;;;;;;;8.23;4.00;;;32.90;52.40;;;;;;5147469;27;20193;-83
2023/07/19 09:01:31;;;;;;;10.32;4.20;;;32.20;56.30;;;;;;5141118;27;20205;-84
2023/07/19 09:03:59;;;;;;;6.88;3.90;;;32.30;52.80;;;;;;5138935;27;20292;-80
2023/07/19 09:06:30;;;;;;;10.20;4.20;;;31.50;52.70;;;;;;5138011;27;20214;-80
2023/07/19 09:08:59;;;;;;;7.78;3.65;;;31.70;49.20;;;;;;5144370;27;20266;-82
2023/07/19 09:11:27;;;;;;;4.75;3.88;;;31.90;50.60;;;;;;5142128;27;20660;-83
2023/07/19 09:13:59;;;;;;;6.20;3.70;;;32.80;50.10;;;;;;5144779;27;20196;-83
2023/07/19 09:16:29;;;;;;;6.60;3.85;;;33.80;47.20;;;;;;5163857;27;20727;-83
2023/07/19 09:18:59;;;;;;;5.60;3.35;;;33.90;47.40;;;;;;5159611;27;20208;-79
2023/07/19 09:21:34;;;;;;;5.45;3.50;;;34.40;44.80;;;;;;5158125;27;20211;-83
2023/07/19 09:24:05;;;;;;;5.35;3.47;;;34.50;44.50;;;;;;5158401;27;20205;-82
2023/07/19 09:26:49;;;;;;;6.43;3.58;;;34.00;41.00;;;;;;5161619;27;20257;-83
2023/07/19 09:29:20;;;;;;;7.82;3.42;;;34.00;40.80;;;;;;5160613;27;20316;-83
2023/07/19 09:31:56;;;;;;;6.22;3.22;;;33.60;40.80;;;;;;5155581;27;20273;-81
2023/07/19 09:34:27;;;;;;;6.00;3.53;;;32.90;42.80;;;;;;5163618;27;20201;-79
2023/07/19 09:36:55;;;;;;;4.82;3.00;;;32.20;43.80;;;;;;5162821;27;20208;-82
2023/07/19 09:39:23;;;;;;;6.15;3.40;;;32.60;43.50;;;;;;5143321;27;20190;-84
2023/07/19 09:41:54;;;;;;;6.90;3.38;;;33.20;45.30;;;;;;5137895;27;20655;-81
2023/07/19 09:44:24;;;;;;;5.50;3.40;;;33.80;44.90;;;;;;5133687;27;20194;-81
2023/07/19 09:46:54;;;;;;;5.30;3.55;;;33.90;42.20;;;;;;5135992;27;20262;-80
2023/07/19 09:49:23;;;;;;;7.28;3.58;;;33.80;41.60;;;;;;5136123;27;20266;-81
2023/07/19 09:51:56;;;;;;;7.45;3.50;;;33.90;41.90;;;;;;5136868;27;20210;-83
2023/07/19 09:54:26;;;;;;;7.53;3.50;;;34.10;42.20;;;;;;5136633;27;20505;-80
2023/07/19 09:56:54;;;;;;;6.97;3.60;;;34.40;39.70;;;;;;5136973;27;20205;-81
2023/07/19 09:59:28;;;;;;;6.65;3.70;;;34.40;37.80;;;;;;5135338;27;20194;-79
2023/07/19 10:01:57;;;;;;;3.90;2.85;;;34.40;38.10;;;;;;5135640;27;20205;-80
2023/07/19 10:04:26;;;;;;;5.72;3.63;;;34.40;38.10;;;;;;5133375;27;20284;-82
2023/07/19 10:07:04;;;;;;;5.65;3.38;;;35.10;37.50;;;;;;5136040;27;20238;-81
2023/07/19 10:09:39;;;;;;;4.65;3.10;;;35.30;38.90;;;;;;5141365;27;20301;-83
2023/07/19 10:12:22;;;;;;;6.45;3.20;;;34.90;38.60;;;;;;5136016;27;20234;-82
2023/07/19 10:14:55;;;;;;;5.60;3.40;;;35.20;38.80;;;;;;5135513;27;20235;-81
2023/07/19 10:17:24;;;;;;;6.95;3.42;;;34.90;37.80;;;;;;5134342;27;20205;-83
2023/07/19 10:20:08;;;;;;;4.82;3.20;;;35.10;37.00;;;;;;5137787;27;20193;-80
2023/07/19 10:23:00;;;;;;;8.05;3.42;;;35.30;36.60;;;;;;5149125;27;20251;-82
2023/07/19 10:25:34;;;;;;;6.05;3.00;;;36.00;37.20;;;;;;5145866;27;20228;-82
2023/07/19 10:28:05;;;;;;;6.45;3.30;;;35.60;33.40;;;;;;5140804;27;20213;-81
2023/07/19 10:30:55;;;;;;;5.47;3.00;;;36.00;34.30;;;;;;5145380;27;20210;-82
2023/07/19 10:33:25;;;;;;;6.00;3.60;;;35.50;35.00;;;;;;5145951;27;20227;-82
2023/07/19 10:35:55;;;;;;;5.38;3.38;;;35.70;35.30;;;;;;5146953;27;20241;-83
2023/07/19 10:38:25;;;;;;;8.23;3.20;;;35.60;32.90;;;;;;5142386;27;20209;-83
2023/07/19 10:40:57;;;;;;;5.90;3.53;;;35.20;34.20;;;;;;5144264;27;20708;-82
2023/07/19 10:43:27;;;;;;;5.25;3.20;;;36.00;33.30;;;;;;5139545;27;20201;-83
2023/07/19 10:46:17;;;;;;;5.07;3.47;;;35.90;33.00;;;;;;5157506;27;20220;-83
2023/07/19 10:48:49;;;;;;;5.13;3.30;;;34.70;34.20;;;;;;5157478;27;20250;-82
2023/07/19 10:51:20;;;;;;;5.43;3.47;;;34.00;34.00;;;;;;5157076;27;20208;-82
2023/07/19 10:53:56;;;;;;;7.32;3.20;;;34.10;35.80;;;;;;5156900;27;20193;-82
2023/07/19 10:56:26;;;;;;;7.25;3.40;;;34.50;36.20;;;;;;5155479;27;20218;-81
2023/07/19 10:58:59;;;;;;;5.20;3.25;;;34.80;36.40;;;;;;5156803;27;20201;-83
2023/07/19 11:01:29;;;;;;;5.40;3.38;;;35.00;33.80;;;;;;5157995;27;20189;-83
2023/07/19 11:04:03;;;;;;;5.00;3.30;;;35.30;33.70;;;;;;5144548;27;20205;-81
2023/07/19 11:06:32;;;;;;;4.85;3.30;;;35.40;34.10;;;;;;5135460;27;20742;-83
2023/07/19 11:09:05;;;;;;;5.75;3.17;;;35.30;32.70;;;;;;5137625;27;20668;-82
2023/07/19 11:11:37;;;;;;;7.13;3.40;;;34.70;33.40;;;;;;5129611;27;20652;-83
2023/07/19 11:14:06;;;;;;;6.57;3.50;;;34.10;32.80;;;;;;5114007;28;20256;-83
2023/07/19 11:16:36;;;;;;;4.15;3.10;;;34.20;34.10;;;;;;5116252;28;20205;-81
2023/07/19 11:19:05;;;;;;;5.53;3.55;;;34.20;33.60;;;;;;5116924;28;20270;-81
2023/07/19 11:21:33;;;;;;;6.00;3.42;;;33.20;34.50;;;;;;5148741;27;20583;-82
2023/07/19 11:24:02;;;;;;;7.35;3.42;;;32.60;36.60;;;;;;5163088;27;20571;-82
2023/07/19 11:26:31;;;;;;;4.28;2.90;;;32.60;38.60;;;;;;5163105;27;20205;-83
2023/07/19 11:28:59;;;;;;;6.65;3.28;;;32.30;36.70;;;;;;5158963;27;20245;-82
2023/07/19 11:31:33;;;;;;;5.10;2.90;;;32.20;38.10;;;;;;5145924;27;20213;-81
2023/07/19 11:34:06;;;;;;;5.03;3.15;;;32.10;37.90;;;;;;5137435;27;20264;-81
2023/07/19 11:36:35;;;;;;;4.45;3.10;;;32.10;37.50;;;;;;5136825;27;20555;-81
2023/07/19 11:39:03;;;;;;;5.22;3.30;;;32.00;38.60;;;;;;5134594;27;20197;-80
2023/07/19 11:41:32;;;;;;;7.15;3.45;;;31.90;38.10;;;;;;5133688;27;20246;-82
2023/07/19 11:44:00;;;;;;;6.13;3.20;;;31.50;38.90;;;;;;5135214;27;20245;-81
2023/07/19 11:46:31;;;;;;;4.40;3.45;;;31.50;39.60;;;;;;5133434;27;20213;-81
2023/07/19 11:48:59;;;;;;;6.88;3.47;;;31.70;40.20;;;;;;5133947;27;20592;-81
2023/07/19 11:51:29;;;;;;;6.87;3.60;;;31.50;38.40;;;;;;5137558;27;20655;-80
2023/07/19 11:53:58;;;;;;;8.33;3.77;;;31.60;39.80;;;;;;5134672;28;20202;-80
2023/07/19 11:56:26;;;;;;;5.50;3.30;;;31.50;38.30;;;;;;5139051;27;20263;-80
2023/07/19 11:58:57;;;;;;;6.83;3.50;;;31.50;38.40;;;;;;5137903;28;20674;-81
2023/07/19 12:01:26;;;;;;;7.67;3.53;;;31.50;38.10;;;;;;5134715;27;20284;-79
2023/07/19 12:03:59;;;;;;;6.13;3.80;;;31.60;37.70;;;;;;5143271;27;20232;-80
2023/07/19 12:06:30;;;;;;;5.77;3.90;;;31.50;37.90;;;;;;5137345;27;20213;-81
2023/07/19 12:08:59;;;;;;;5.67;3.53;;;31.30;38.50;;;;;;5139415;27;20198;-80
2023/07/19 12:11:27;;;;;;;5.53;3.70;;;31.30;38.50;;;;;;5138538;27;20197;-80
2023/07/19 12:13:57;;;;;;;5.13;3.73;;;31.50;36.80;;;;;;5136169;27;20264;-80
2023/07/19 12:16:26;;;;;;;8.87;3.73;;;31.40;36.60;;;;;;5136525;27;20738;-81
2023/07/19 12:18:54;;;;;;;6.03;3.30;;;31.50;37.80;;;;;;5138899;27;20213;-78
2023/07/19 12:21:23;;;;;;;4.97;3.50;;;31.50;38.60;;;;;;5139207;27;20213;-80
2023/07/19 12:23:54;;;;;;;7.63;3.53;;;31.40;40.20;;;;;;5139234;27;20208;-80
2023/07/19 12:26:27;;;;;;;5.07;3.77;;;31.80;41.30;;;;;;5137043;27;20238;-81
2023/07/19 12:28:58;;;;;;;5.47;3.60;;;31.50;37.90;;;;;;5139754;27;20209;-77
2023/07/19 12:31:26;;;;;;;6.37;3.43;;;31.50;39.00;;;;;;5134941;27;20240;-81
2023/07/19 12:33:56;;;;;;;7.47;3.70;;;31.30;37.60;;;;;;5140920;27;20280;-81
2023/07/19 12:36:25;;;;;;;7.13;3.73;;;31.30;41.00;;;;;;5138456;27;20599;-78
2023/07/19 12:38:56;;;;;;;6.27;3.60;;;31.30;38.80;;;;;;5139918;27;20236;-81
2023/07/19 12:41:24;;;;;;;5.83;3.40;;;31.40;40.00;;;;;;5141101;27;20198;-78
2023/07/19 12:43:52;;;;;;;5.23;3.50;;;31.50;40.60;;;;;;5137437;27;20205;-79
2023/07/19 12:46:21;;;;;;;6.03;3.63;;;31.50;38.00;;;;;;5139062;27;20205;-79
2023/07/19 12:48:51;;;;;;;6.67;3.60;;;31.40;39.30;;;;;;5141119;27;20683;-79
2023/07/19 12:51:19;;;;;;;6.23;3.70;;;31.00;39.30;;;;;;5141162;27;20233;-80